createdAt,value
2018-12-07T00:01:19.926Z,94.80
2018-12-07T00:03:48.142Z,94.50
2018-12-07T00:06:16.337Z,94.70
2018-12-07T00:08:44.534Z,94.60
2018-12-07T00:11:12.720Z,94.50
2018-12-07T00:13:40.917Z,94.60
2018-12-07T00:16:09.106Z,94.60
2018-12-07T00:18:37.313Z,94.50
2018-12-07T00:21:05.736Z,94.60
2018-12-07T00:23:33.943Z,94.60
2018-12-07T00:26:02.400Z,94.50
2018-12-07T00:28:30.593Z,94.90
2018-12-07T00:30:58.776Z,94.60
2018-12-07T00:33:26.973Z,94.50
2018-12-07T00:35:55.204Z,94.50
2018-12-07T00:38:23.503Z,94.50
2018-12-07T00:40:51.733Z,94.50
2018-12-07T00:43:19.946Z,94.70
2018-12-07T00:45:48.149Z,94.60
2018-12-07T00:48:16.348Z,94.60
2018-12-07T00:50:44.797Z,94.60
2018-12-07T00:53:13.330Z,94.50
2018-12-07T00:55:41.617Z,94.50
2018-12-07T00:58:09.901Z,94.50
2018-12-07T01:00:38.084Z,94.50
2018-12-07T01:03:06.365Z,94.40
2018-12-07T01:05:34.649Z,94.40
2018-12-07T01:08:02.929Z,94.30
2018-12-07T01:10:31.126Z,94.20
2018-12-07T01:12:59.332Z,94.20
2018-12-07T01:15:27.529Z,94.30
2018-12-07T01:17:55.746Z,94.40
2018-12-07T01:20:24.078Z,94.30
2018-12-07T01:22:52.273Z,94.20
2018-12-07T01:25:20.465Z,94.20
2018-12-07T01:27:48.688Z,94.10
2018-12-07T01:30:16.974Z,94.00
2018-12-07T01:32:45.157Z,93.90
2018-12-07T01:35:13.361Z,93.80
2018-12-07T01:37:41.553Z,93.90
2018-12-07T01:40:09.926Z,94.00
2018-12-07T01:42:38.116Z,93.90
2018-12-07T01:45:06.761Z,94.00
2018-12-07T01:47:39.185Z,93.90
2018-12-07T01:50:07.564Z,93.90
2018-12-07T01:52:35.753Z,93.90
2018-12-07T01:55:04.159Z,93.70
2018-12-07T01:57:32.659Z,93.70
2018-12-07T02:00:00.869Z,93.60
2018-12-07T02:02:29.166Z,93.60
2018-12-07T02:04:57.365Z,93.70
2018-12-07T02:07:31.356Z,93.60
2018-12-07T02:10:00.052Z,93.60
2018-12-07T02:12:28.470Z,93.60
2018-12-07T02:14:56.752Z,93.60
2018-12-07T02:17:24.945Z,93.60
2018-12-07T02:19:53.153Z,93.60
2018-12-07T02:22:21.348Z,93.70
2018-12-07T02:24:49.549Z,93.90
2018-12-07T02:27:17.735Z,93.80
2018-12-07T02:29:45.953Z,93.90
2018-12-07T02:32:14.152Z,93.80
2018-12-07T02:34:42.882Z,93.80
2018-12-07T02:37:11.207Z,93.90
2018-12-07T02:39:39.414Z,93.90
2018-12-07T02:42:07.697Z,93.80
2018-12-07T02:44:36.262Z,93.70
2018-12-07T02:47:04.539Z,93.70
2018-12-07T02:49:32.732Z,93.50
2018-12-07T02:52:00.917Z,93.60
2018-12-07T02:54:29.109Z,93.70
2018-12-07T02:56:57.297Z,93.70
2018-12-07T02:59:25.493Z,93.60
2018-12-07T03:01:53.936Z,93.70
2018-12-07T03:04:22.398Z,93.60
2018-12-07T03:06:50.596Z,93.50
2018-12-07T03:09:18.882Z,93.40
2018-12-07T03:11:47.073Z,93.50
2018-12-07T03:14:15.434Z,93.50
2018-12-07T03:16:43.650Z,93.50
2018-12-07T03:19:11.863Z,93.40
2018-12-07T03:21:40.071Z,93.60
2018-12-07T03:24:08.261Z,93.70
2018-12-07T03:26:36.449Z,93.50
2018-12-07T03:29:04.644Z,93.50
2018-12-07T03:31:32.846Z,93.50
2018-12-07T03:34:02.475Z,93.30
2018-12-07T03:36:30.985Z,93.50
2018-12-07T03:38:59.176Z,93.30
2018-12-07T03:41:27.385Z,93.40
2018-12-07T03:43:55.581Z,93.30
2018-12-07T03:46:23.764Z,93.40
2018-12-07T03:48:51.957Z,93.40
2018-12-07T03:51:20.193Z,93.30
2018-12-07T03:53:48.415Z,93.40
2018-12-07T03:56:16.625Z,93.50
2018-12-07T03:58:44.804Z,93.40
2018-12-07T04:01:13.003Z,93.50
2018-12-07T04:03:41.898Z,93.60
2018-12-07T04:06:10.276Z,93.50
2018-12-07T04:08:38.464Z,93.50
2018-12-07T04:11:06.774Z,93.60
2018-12-07T04:13:34.971Z,93.50
2018-12-07T04:16:03.248Z,93.60
2018-12-07T04:18:31.437Z,93.60
2018-12-07T04:20:59.628Z,93.60
2018-12-07T04:23:27.859Z,93.70
2018-12-07T04:25:56.057Z,93.70
2018-12-07T04:28:24.237Z,93.80
2018-12-07T04:30:52.457Z,93.70
2018-12-07T04:33:20.813Z,93.60
2018-12-07T04:35:49.101Z,93.70
2018-12-07T04:38:17.298Z,93.80
2018-12-07T04:40:45.510Z,93.80
2018-12-07T04:43:13.701Z,93.80
2018-12-07T04:45:41.888Z,93.90
2018-12-07T04:48:10.073Z,93.80
2018-12-07T04:50:38.365Z,93.80
2018-12-07T04:53:06.550Z,93.70
2018-12-07T04:55:34.751Z,93.50
2018-12-07T04:58:03.114Z,93.70
2018-12-07T05:00:31.502Z,93.70
2018-12-07T05:02:59.680Z,93.70
2018-12-07T05:05:27.961Z,93.70
2018-12-07T05:07:56.149Z,93.70
2018-12-07T05:10:25.022Z,93.70
2018-12-07T05:12:53.230Z,93.60
2018-12-07T05:15:21.604Z,93.50
2018-12-07T05:17:49.845Z,93.60
2018-12-07T05:20:18.037Z,93.40
2018-12-07T05:22:46.226Z,93.50
2018-12-07T05:25:14.439Z,93.40
2018-12-07T05:27:42.648Z,93.50
2018-12-07T05:30:11.204Z,93.50
2018-12-07T05:32:39.493Z,93.50
2018-12-07T05:35:07.889Z,93.40
2018-12-07T05:37:36.086Z,93.40
2018-12-07T05:40:04.762Z,93.50
2018-12-07T05:42:32.957Z,93.30
2018-12-07T05:45:01.199Z,93.20
2018-12-07T05:47:29.457Z,93.20
2018-12-07T05:49:57.653Z,93.20
2018-12-07T05:52:25.845Z,93.30
2018-12-07T05:54:54.151Z,94.90
2018-12-07T05:57:22.378Z,93.80
2018-12-07T05:59:50.590Z,93.50
2018-12-07T06:02:18.789Z,93.80
2018-12-07T06:04:47.073Z,92.50
2018-12-07T06:07:15.260Z,92.80
2018-12-07T06:09:43.456Z,92.60
2018-12-07T06:12:11.649Z,92.20
2018-12-07T06:14:39.874Z,92.40
2018-12-07T06:17:08.061Z,92.10
2018-12-07T06:19:36.248Z,92.10
2018-12-07T06:22:04.532Z,91.90
2018-12-07T06:24:32.734Z,91.50
2018-12-07T06:27:00.926Z,91.60
2018-12-07T06:29:29.104Z,91.30
2018-12-07T06:31:57.301Z,91.30
2018-12-07T06:34:25.519Z,91.10
2018-12-07T06:36:53.748Z,91.10
2018-12-07T06:39:21.958Z,91.10
2018-12-07T06:41:50.162Z,91.10
2018-12-07T06:44:18.347Z,91.50
2018-12-07T06:46:46.537Z,91.60
2018-12-07T06:49:14.721Z,91.80
2018-12-07T06:51:43.621Z,91.70
2018-12-07T06:54:11.896Z,91.40
2018-12-07T06:56:40.364Z,91.70
2018-12-07T06:59:08.844Z,91.90
2018-12-07T07:01:37.129Z,91.20
2018-12-07T07:04:05.320Z,91.30
2018-12-07T07:06:33.608Z,91.10
2018-12-07T07:09:01.792Z,91.40
2018-12-07T07:11:30.031Z,91.70
2018-12-07T07:13:58.230Z,91.30
2018-12-07T07:16:26.439Z,91.20
2018-12-07T07:18:55.277Z,91.40
2018-12-07T07:21:23.674Z,91.70
2018-12-07T07:23:51.959Z,91.70
2018-12-07T07:26:20.157Z,91.60
2018-12-07T07:28:48.457Z,91.30
2018-12-07T07:31:16.989Z,91.60
2018-12-07T07:33:45.193Z,90.90
2018-12-07T07:36:13.465Z,91.10
2018-12-07T07:38:41.909Z,91.70
2018-12-07T07:41:10.111Z,91.70
2018-12-07T07:43:38.289Z,91.40
2018-12-07T07:46:06.480Z,90.90
2018-12-07T07:48:34.680Z,91.50
2018-12-07T07:51:03.009Z,91.50
2018-12-07T07:53:31.360Z,91.60
2018-12-07T07:55:59.561Z,91.40
2018-12-07T07:58:27.760Z,90.90
2018-12-07T08:00:56.037Z,91.10
2018-12-07T08:03:24.233Z,91.10
2018-12-07T08:05:52.526Z,91.10
2018-12-07T08:08:20.825Z,91.30
2018-12-07T08:10:49.039Z,91.10
2018-12-07T08:13:17.331Z,91.50
2018-12-07T08:15:45.616Z,91.40
2018-12-07T08:18:13.880Z,91.50
2018-12-07T08:20:42.165Z,91.20
2018-12-07T08:23:14.703Z,91.10
2018-12-07T08:25:40.752Z,90.90
2018-12-07T08:28:09.050Z,91.40
2018-12-07T08:30:37.294Z,91.20
2018-12-07T08:33:05.484Z,91.20
2018-12-07T08:35:33.673Z,91.30
2018-12-07T08:38:02.120Z,90.90
2018-12-07T08:40:30.348Z,91.00
2018-12-07T08:42:58.678Z,90.90
2018-12-07T08:45:27.045Z,90.90
2018-12-07T08:47:55.228Z,90.40
2018-12-07T08:50:23.417Z,90.70
2018-12-07T08:52:51.705Z,90.60
2018-12-07T08:55:19.977Z,90.80
2018-12-07T08:57:48.353Z,90.30
2018-12-07T09:00:16.719Z,90.50
2018-12-07T09:02:45.089Z,90.60
2018-12-07T09:05:13.573Z,90.60
2018-12-07T09:07:41.766Z,90.40
2018-12-07T09:10:10.052Z,90.60
2018-12-07T09:12:38.737Z,90.50
2018-12-07T09:15:07.300Z,90.40
2018-12-07T09:17:35.577Z,90.30
2018-12-07T09:20:05.138Z,90.30
2018-12-07T09:22:33.358Z,90.50
2018-12-07T09:25:01.558Z,90.60
2018-12-07T09:27:29.765Z,91.00
2018-12-07T09:29:57.945Z,91.00
2018-12-07T09:32:26.565Z,90.70
2018-12-07T09:34:54.749Z,90.40
2018-12-07T09:37:22.946Z,90.30
2018-12-07T09:39:51.314Z,90.10
2018-12-07T09:42:19.501Z,90.00
2018-12-07T09:44:47.696Z,89.40
2018-12-07T09:47:15.898Z,90.10
2018-12-07T09:49:44.085Z,89.70
2018-12-07T09:52:12.365Z,89.30
2018-12-07T09:54:40.557Z,88.70
2018-12-07T09:57:08.765Z,88.60
2018-12-07T09:59:36.965Z,89.30
2018-12-07T10:02:05.307Z,89.00
2018-12-07T10:04:33.528Z,89.00
2018-12-07T10:07:01.750Z,90.00
2018-12-07T10:09:29.949Z,89.20
2018-12-07T10:11:58.153Z,88.50
2018-12-07T10:14:26.341Z,88.40
2018-12-07T10:16:54.553Z,89.10
2018-12-07T10:19:22.781Z,88.60
2018-12-07T10:21:50.985Z,87.70
2018-12-07T10:24:19.199Z,88.40
2018-12-07T10:26:47.405Z,88.30
2018-12-07T10:29:15.594Z,88.40
2018-12-07T10:31:44.520Z,87.40
2018-12-07T10:34:12.709Z,87.50
2018-12-07T10:36:40.905Z,87.10
2018-12-07T10:39:09.381Z,88.30
2018-12-07T10:41:37.578Z,87.90
2018-12-07T10:44:05.788Z,87.80
2018-12-07T10:46:34.101Z,87.80
2018-12-07T10:49:02.338Z,87.00
2018-12-07T10:51:30.584Z,85.80
2018-12-07T10:53:58.810Z,87.60
2018-12-07T10:56:27.005Z,87.00
2018-12-07T10:58:55.475Z,86.20
2018-12-07T11:01:29.322Z,85.50
2018-12-07T11:04:02.894Z,86.00
2018-12-07T11:06:36.809Z,86.50
2018-12-07T11:09:12.486Z,87.10
2018-12-07T11:11:44.952Z,86.00
2018-12-07T11:14:15.360Z,86.30
2018-12-07T11:16:49.146Z,86.30
2018-12-07T11:19:22.869Z,87.30
2018-12-07T11:21:57.582Z,86.30
2018-12-07T11:24:31.278Z,86.70
2018-12-07T11:27:04.956Z,86.30
2018-12-07T11:29:38.605Z,86.90
2018-12-07T11:32:12.061Z,86.70
2018-12-07T11:34:43.973Z,86.20
2018-12-07T11:37:12.256Z,85.80
2018-12-07T11:39:40.461Z,86.70
2018-12-07T11:42:08.650Z,86.90
2018-12-07T11:44:36.845Z,86.40
2018-12-07T11:47:05.033Z,86.90
2018-12-07T11:49:33.768Z,86.50
2018-12-07T11:52:02.067Z,87.10
2018-12-07T11:54:30.349Z,87.00
2018-12-07T11:56:58.649Z,86.60
2018-12-07T11:59:26.861Z,87.10
2018-12-07T12:01:55.145Z,86.50
2018-12-07T12:04:23.351Z,87.00
2018-12-07T12:06:51.537Z,86.50
2018-12-07T12:09:19.796Z,86.30
2018-12-07T12:11:48.028Z,86.00
2018-12-07T12:14:16.542Z,84.10
2018-12-07T12:16:44.725Z,84.60
2018-12-07T12:19:12.921Z,84.90
2018-12-07T12:21:41.120Z,84.00
2018-12-07T12:24:09.326Z,84.80
2018-12-07T12:26:37.521Z,84.10
2018-12-07T12:29:05.727Z,84.10
2018-12-07T12:31:34.009Z,83.50
2018-12-07T12:34:02.204Z,84.20
2018-12-07T12:36:30.481Z,84.40
2018-12-07T12:38:58.693Z,83.80
2018-12-07T12:41:27.026Z,83.70
2018-12-07T12:43:55.249Z,83.20
2018-12-07T12:46:23.442Z,83.50
2018-12-07T12:48:51.883Z,82.40
2018-12-07T12:51:20.365Z,83.10
2018-12-07T12:53:48.595Z,83.50
2018-12-07T12:56:16.793Z,82.90
2018-12-07T12:58:44.981Z,82.90
2018-12-07T13:01:13.204Z,82.90
2018-12-07T13:03:41.397Z,83.10
2018-12-07T13:06:09.606Z,82.70
2018-12-07T13:08:37.793Z,82.50
2018-12-07T13:11:06.001Z,83.10
2018-12-07T13:13:34.189Z,82.10
2018-12-07T13:16:02.393Z,82.90
2018-12-07T13:18:30.606Z,83.10
2018-12-07T13:20:58.807Z,82.50
2018-12-07T13:23:27.092Z,81.30
2018-12-07T13:25:55.311Z,81.20
2018-12-07T13:28:23.551Z,82.30
2018-12-07T13:30:51.787Z,81.40
2018-12-07T13:33:20.119Z,81.40
2018-12-07T13:35:48.385Z,82.10
2018-12-07T13:38:16.587Z,82.00
2018-12-07T13:40:45.116Z,81.50
2018-12-07T13:43:13.671Z,81.90
2018-12-07T13:45:42.350Z,81.30
2018-12-07T13:48:10.766Z,81.90
2018-12-07T13:50:41.512Z,81.60
2018-12-07T13:53:10.319Z,81.80
2018-12-07T13:55:38.772Z,82.10
2018-12-07T13:58:07.904Z,82.60
2018-12-07T14:00:36.494Z,82.60
2018-12-07T14:03:05.194Z,82.90
2018-12-07T14:05:33.809Z,82.30
2018-12-07T14:08:02.115Z,82.10
2018-12-07T14:10:30.368Z,81.90
2018-12-07T14:12:58.609Z,81.10
2018-12-07T14:15:27.194Z,81.50
2018-12-07T14:17:55.590Z,81.90
2018-12-07T14:20:24.050Z,81.80
2018-12-07T14:22:52.694Z,81.60
2018-12-07T14:25:21.005Z,80.40
2018-12-07T14:27:49.313Z,79.00
2018-12-07T14:30:17.762Z,80.90
2018-12-07T14:32:46.305Z,80.10
2018-12-07T14:35:14.898Z,79.60
2018-12-07T14:37:43.660Z,79.90
2018-12-07T14:40:11.965Z,79.90
2018-12-07T14:42:40.658Z,79.50
2018-12-07T14:45:09.167Z,79.30
2018-12-07T14:47:37.680Z,79.30
2018-12-07T14:50:07.012Z,79.30
2018-12-07T14:52:35.639Z,79.80
2018-12-07T14:55:04.736Z,80.90
2018-12-07T14:57:33.022Z,82.00
2018-12-07T15:00:01.718Z,82.50
2018-12-07T15:02:30.036Z,82.90
2018-12-07T15:04:58.608Z,83.40
2018-12-07T15:07:27.135Z,83.60
2018-12-07T15:09:55.455Z,84.30
2018-12-07T15:12:23.824Z,85.00
2018-12-07T15:14:52.210Z,85.40
2018-12-07T15:17:20.623Z,85.40
2018-12-07T15:19:48.939Z,85.30
2018-12-07T15:22:17.296Z,85.60
2018-12-07T15:24:45.819Z,85.90
2018-12-07T15:27:14.188Z,86.10
2018-12-07T15:29:42.809Z,86.10
2018-12-07T15:32:11.214Z,86.50
2018-12-07T15:34:39.758Z,86.80
2018-12-07T15:37:08.309Z,87.20
2018-12-07T15:39:36.800Z,87.30
2018-12-07T15:42:05.704Z,87.50
2018-12-07T15:44:34.269Z,88.00
2018-12-07T15:47:02.804Z,88.60
2018-12-07T15:49:31.885Z,89.40
2018-12-07T15:52:00.875Z,89.00
2018-12-07T15:54:30.493Z,89.60
2018-12-07T15:56:59.019Z,90.20
2018-12-07T15:59:34.435Z,89.50
2018-12-07T16:01:58.087Z,89.30
2018-12-07T16:04:26.723Z,89.60
2018-12-07T16:06:55.503Z,89.50
2018-12-07T16:09:24.131Z,90.00
2018-12-07T16:11:52.743Z,90.00
2018-12-07T16:14:21.367Z,90.00
2018-12-07T16:16:49.950Z,90.10
2018-12-07T16:19:18.430Z,90.10
2018-12-07T16:21:46.911Z,90.20
2018-12-07T16:24:15.343Z,90.10
2018-12-07T16:26:43.777Z,90.50
2018-12-07T16:29:12.357Z,90.10
2018-12-07T16:31:40.860Z,90.20
2018-12-07T16:34:09.622Z,90.20
2018-12-07T16:36:38.282Z,90.30
2018-12-07T16:39:08.090Z,90.40
2018-12-07T16:41:36.610Z,90.40
2018-12-07T16:44:05.024Z,90.30
2018-12-07T16:46:33.373Z,90.30
2018-12-07T16:49:01.739Z,90.40
2018-12-07T16:51:30.187Z,90.50
2018-12-07T16:53:58.743Z,90.50
2018-12-07T16:56:27.326Z,90.60
2018-12-07T16:58:56.145Z,90.60
2018-12-07T17:01:24.667Z,90.60
2018-12-07T17:03:53.383Z,90.80
2018-12-07T17:06:22.591Z,90.70
2018-12-07T17:08:51.102Z,90.80
2018-12-07T17:11:19.938Z,90.90
2018-12-07T17:13:48.559Z,91.20
2018-12-07T17:16:17.044Z,91.20
2018-12-07T17:18:45.441Z,91.10
2018-12-07T17:21:14.148Z,91.40
2018-12-07T17:23:42.497Z,91.60
2018-12-07T17:26:10.980Z,91.50
2018-12-07T17:28:39.594Z,91.80
2018-12-07T17:31:07.862Z,91.90
2018-12-07T17:33:36.255Z,92.20
2018-12-07T17:36:04.592Z,91.80
2018-12-07T17:38:32.787Z,92.20
2018-12-07T17:41:02.015Z,92.30
2018-12-07T17:43:30.680Z,92.20
2018-12-07T17:45:59.079Z,92.40
2018-12-07T17:48:27.653Z,92.20
2018-12-07T17:50:55.994Z,92.50
2018-12-07T17:53:24.523Z,92.20
2018-12-07T17:55:53.443Z,92.30
2018-12-07T17:58:21.926Z,92.20
2018-12-07T18:00:50.556Z,92.20
2018-12-07T18:03:19.259Z,92.20
2018-12-07T18:05:47.474Z,92.20
2018-12-07T18:08:16.048Z,92.10
2018-12-07T18:10:44.287Z,92.30
2018-12-07T18:13:12.684Z,92.10
2018-12-07T18:15:41.161Z,92.00
2018-12-07T18:18:09.773Z,92.00
2018-12-07T18:20:38.217Z,92.00
2018-12-07T18:23:06.527Z,92.00
2018-12-07T18:25:34.920Z,91.90
2018-12-07T18:28:03.365Z,91.90
2018-12-07T18:30:31.965Z,91.90
2018-12-07T18:33:00.450Z,91.90
2018-12-07T18:35:28.896Z,91.70
2018-12-07T18:37:57.747Z,91.90
2018-12-07T18:40:26.373Z,91.90
2018-12-07T18:42:54.875Z,92.30
2018-12-07T18:45:23.228Z,92.10
2018-12-07T18:47:51.654Z,92.00
2018-12-07T18:50:20.132Z,92.20
2018-12-07T18:52:48.658Z,92.30
2018-12-07T18:55:17.088Z,92.40
2018-12-07T18:57:45.414Z,92.20
2018-12-07T19:00:13.940Z,92.20
2018-12-07T19:02:42.338Z,92.40
2018-12-07T19:05:10.856Z,92.30
2018-12-07T19:07:39.416Z,92.30
2018-12-07T19:10:08.177Z,92.60
2018-12-07T19:12:36.622Z,92.50
2018-12-07T19:15:05.496Z,92.40
2018-12-07T19:17:34.146Z,92.50
2018-12-07T19:20:02.672Z,92.60
2018-12-07T19:22:31.040Z,92.70
2018-12-07T19:24:59.612Z,92.60
2018-12-07T19:27:28.098Z,92.60
2018-12-07T19:29:56.510Z,92.50
2018-12-07T19:32:24.820Z,92.50
2018-12-07T19:34:53.259Z,92.40
2018-12-07T19:37:22.060Z,92.40
2018-12-07T19:39:50.547Z,92.50
2018-12-07T19:42:19.094Z,92.60
2018-12-07T19:44:47.494Z,92.80
2018-12-07T19:47:15.950Z,92.70
2018-12-07T19:49:44.475Z,92.70
2018-12-07T19:52:13.029Z,92.70
2018-12-07T19:54:41.319Z,92.80
2018-12-07T19:57:09.575Z,92.80
2018-12-07T19:59:37.837Z,92.80
2018-12-07T20:02:06.366Z,92.80
2018-12-07T20:04:34.936Z,92.80
2018-12-07T20:07:03.272Z,92.80
2018-12-07T20:09:31.637Z,92.70
2018-12-07T20:12:00.251Z,92.70
2018-12-07T20:14:28.714Z,92.70
2018-12-07T20:16:57.145Z,92.50
2018-12-07T20:19:25.430Z,92.60
2018-12-07T20:21:53.616Z,92.60
2018-12-07T20:24:21.808Z,92.50
2018-12-07T20:26:50.264Z,92.60
2018-12-07T20:29:18.613Z,92.40
2018-12-07T20:31:46.817Z,92.70
2018-12-07T20:34:15.029Z,92.40
2018-12-07T20:36:43.349Z,92.40
2018-12-07T20:39:11.954Z,92.10
2018-12-07T20:41:40.249Z,92.10
2018-12-07T20:44:08.636Z,92.00
2018-12-07T20:46:37.301Z,91.80
2018-12-07T20:49:05.654Z,91.80
2018-12-07T20:51:33.914Z,91.90
2018-12-07T20:54:02.200Z,92.20
2018-12-07T20:56:30.397Z,92.20
2018-12-07T20:58:58.759Z,92.50
2018-12-07T21:01:27.420Z,92.60
2018-12-07T21:05:01.892Z,93.20
2018-12-07T21:07:45.871Z,93.50
2018-12-07T21:10:41.220Z,93.90
2018-12-07T21:13:29.743Z,93.20
2018-12-07T21:16:15.693Z,93.00
2018-12-07T21:18:44.197Z,92.90
2018-12-07T21:21:12.810Z,92.60
2018-12-07T21:23:41.381Z,92.40
2018-12-07T21:26:09.729Z,92.60
2018-12-07T21:28:37.990Z,91.70
2018-12-07T21:31:06.209Z,91.70
2018-12-07T21:33:46.472Z,91.60
2018-12-07T21:36:34.715Z,91.50
2018-12-07T21:39:05.397Z,91.00
2018-12-07T21:41:33.768Z,91.00
2018-12-07T21:44:01.996Z,90.90
2018-12-07T21:46:30.654Z,91.10
2018-12-07T21:48:59.173Z,90.70
2018-12-07T21:51:43.949Z,90.60
2018-12-07T21:54:12.237Z,90.70
2018-12-07T21:56:40.784Z,90.80
2018-12-07T21:59:09.441Z,90.40
2018-12-07T22:01:37.998Z,90.50
2018-12-07T22:04:06.479Z,90.40
2018-12-07T22:06:34.985Z,90.30
2018-12-07T22:09:04.629Z,90.40
2018-12-07T22:11:32.985Z,90.30
2018-12-07T22:14:01.594Z,90.30
2018-12-07T22:16:29.942Z,90.20
2018-12-07T22:18:59.427Z,90.20
2018-12-07T22:21:27.811Z,90.10
2018-12-07T22:23:56.240Z,90.20
2018-12-07T22:26:24.586Z,90.20
2018-12-07T22:28:52.848Z,90.20
2018-12-07T22:31:21.589Z,90.10
2018-12-07T22:33:49.883Z,89.60
2018-12-07T22:36:24.006Z,89.80
2018-12-07T22:38:52.308Z,90.00
2018-12-07T22:41:20.632Z,90.00
2018-12-07T22:43:49.092Z,90.20
2018-12-07T22:46:17.671Z,90.10
2018-12-07T22:48:46.148Z,90.20
2018-12-07T22:51:16.439Z,90.50
2018-12-07T22:53:44.635Z,90.60
2018-12-07T22:56:12.817Z,91.00
2018-12-07T22:58:41.012Z,91.00
2018-12-07T23:01:09.397Z,91.00
2018-12-07T23:03:37.635Z,91.00
2018-12-07T23:06:05.838Z,91.00
2018-12-07T23:08:34.040Z,91.10
2018-12-07T23:11:02.236Z,90.80
2018-12-07T23:13:30.433Z,90.00
2018-12-07T23:15:58.630Z,90.00
2018-12-07T23:18:27.112Z,90.10
2018-12-07T23:20:55.301Z,89.70
2018-12-07T23:23:23.496Z,90.10
2018-12-07T23:25:51.760Z,90.10
2018-12-07T23:28:19.996Z,90.20
2018-12-07T23:30:48.181Z,90.30
2018-12-07T23:33:16.377Z,90.10
2018-12-07T23:35:44.568Z,90.10
2018-12-07T23:38:12.828Z,89.60
2018-12-07T23:40:41.052Z,89.30
2018-12-07T23:43:09.570Z,89.00
2018-12-07T23:45:39.001Z,89.60
2018-12-07T23:48:07.200Z,89.30
2018-12-07T23:50:35.477Z,88.80
2018-12-07T23:53:03.848Z,88.20
2018-12-07T23:55:32.032Z,88.40
2018-12-07T23:58:00.244Z,87.80
